sensor_id;sensor_type;location;lat;lon;timestamp;temperature;humidity
10572;DHT22;5334;48.928;12.704;2023-09-30T00:00:27;17.90;99.90
10572;DHT22;5334;48.928;12.704;2023-09-30T00:02:53;17.80;99.90
10572;DHT22;5334;48.928;12.704;2023-09-30T00:05:18;17.80;99.90
10572;DHT22;5334;48.928;12.704;2023-09-30T00:07:47;17.80;99.90
10572;DHT22;5334;48.928;12.704;2023-09-30T00:10:13;17.80;99.90
10572;DHT22;5334;48.928;12.704;2023-09-30T00:12:40;17.80;99.90
10572;DHT22;5334;48.928;12.704;2023-09-30T00:15:05;17.70;99.90
10572;DHT22;5334;48.928;12.704;2023-09-30T00:17:31;17.70;99.90
10572;DHT22;5334;48.928;12.704;2023-09-30T00:19:57;17.70;99.90
10572;DHT22;5334;48.928;12.704;2023-09-30T00:22:24;17.60;99.90
10572;DHT22;5334;48.928;12.704;2023-09-30T00:24:50;17.60;99.90
10572;DHT22;5334;48.928;12.704;2023-09-30T00:29:42;17.50;99.90
10572;DHT22;5334;48.928;12.704;2023-09-30T00:32:08;17.40;99.90
10572;DHT22;5334;48.928;12.704;2023-09-30T00:37:01;17.40;99.90
10572;DHT22;5334;48.928;12.704;2023-09-30T00:39:29;17.30;99.90
10572;DHT22;5334;48.928;12.704;2023-09-30T00:41:58;17.40;99.90
10572;DHT22;5334;48.928;12.704;2023-09-30T00:44:27;17.60;99.90
10572;DHT22;5334;48.928;12.704;2023-09-30T00:46:54;17.50;99.90
10572;DHT22;5334;48.928;12.704;2023-09-30T00:49:25;17.40;99.90
10572;DHT22;5334;48.928;12.704;2023-09-30T00:54:18;17.40;99.90
10572;DHT22;5334;48.928;12.704;2023-09-30T00:59:13;17.30;99.90
10572;DHT22;5334;48.928;12.704;2023-09-30T01:04:07;17.20;99.90
10572;DHT22;5334;48.928;12.704;2023-09-30T01:06:33;17.10;99.90
10572;DHT22;5334;48.928;12.704;2023-09-30T01:11:25;16.90;99.90
10572;DHT22;5334;48.928;12.704;2023-09-30T01:13:51;16.90;99.90
10572;DHT22;5334;48.928;12.704;2023-09-30T01:16:17;16.90;99.90
10572;DHT22;5334;48.928;12.704;2023-09-30T01:18:43;16.90;99.90
10572;DHT22;5334;48.928;12.704;2023-09-30T01:30:56;16.70;99.90
10572;DHT22;5334;48.928;12.704;2023-09-30T01:33:21;16.70;99.90
10572;DHT22;5334;48.928;12.704;2023-09-30T01:35:48;16.60;99.90
10572;DHT22;5334;48.928;12.704;2023-09-30T01:38:14;16.60;99.90
10572;DHT22;5334;48.928;12.704;2023-09-30T01:40:40;16.60;99.90
10572;DHT22;5334;48.928;12.704;2023-09-30T01:45:32;16.60;99.90
10572;DHT22;5334;48.928;12.704;2023-09-30T01:50:23;16.60;99.90
10572;DHT22;5334;48.928;12.704;2023-09-30T01:55:15;16.50;99.90
10572;DHT22;5334;48.928;12.704;2023-09-30T01:57:41;16.40;99.90
10572;DHT22;5334;48.928;12.704;2023-09-30T02:05:02;16.20;99.90
10572;DHT22;5334;48.928;12.704;2023-09-30T02:07:28;16.10;99.90
10572;DHT22;5334;48.928;12.704;2023-09-30T02:09:54;16.10;99.90
10572;DHT22;5334;48.928;12.704;2023-09-30T02:14:47;16.10;99.90
10572;DHT22;5334;48.928;12.704;2023-09-30T02:17:12;16.00;99.90
10572;DHT22;5334;48.928;12.704;2023-09-30T02:19:39;16.00;99.90
10572;DHT22;5334;48.928;12.704;2023-09-30T02:22:06;16.00;99.90
10572;DHT22;5334;48.928;12.704;2023-09-30T02:24:32;15.90;99.90
10572;DHT22;5334;48.928;12.704;2023-09-30T02:26:57;15.90;99.90
10572;DHT22;5334;48.928;12.704;2023-09-30T02:31:49;15.90;99.90
10572;DHT22;5334;48.928;12.704;2023-09-30T02:34:15;15.90;99.90
10572;DHT22;5334;48.928;12.704;2023-09-30T02:36:41;15.90;99.90
10572;DHT22;5334;48.928;12.704;2023-09-30T02:39:07;15.80;99.90
10572;DHT22;5334;48.928;12.704;2023-09-30T02:41:36;15.80;99.90
10572;DHT22;5334;48.928;12.704;2023-09-30T02:44:03;15.80;99.90
10572;DHT22;5334;48.928;12.704;2023-09-30T02:46:29;15.70;99.90
10572;DHT22;5334;48.928;12.704;2023-09-30T02:48:55;15.70;99.90
10572;DHT22;5334;48.928;12.704;2023-09-30T02:51:20;15.60;99.90
10572;DHT22;5334;48.928;12.704;2023-09-30T02:53:46;15.60;99.90
10572;DHT22;5334;48.928;12.704;2023-09-30T02:56:14;15.50;99.90
10572;DHT22;5334;48.928;12.704;2023-09-30T02:58:39;15.50;99.90
10572;DHT22;5334;48.928;12.704;2023-09-30T03:01:06;15.50;99.90
10572;DHT22;5334;48.928;12.704;2023-09-30T03:03:33;15.60;99.90
10572;DHT22;5334;48.928;12.704;2023-09-30T03:05:59;15.60;99.90
10572;DHT22;5334;48.928;12.704;2023-09-30T03:08:26;15.60;99.90
10572;DHT22;5334;48.928;12.704;2023-09-30T03:10:52;15.60;99.90
10572;DHT22;5334;48.928;12.704;2023-09-30T03:13:18;15.70;99.90
10572;DHT22;5334;48.928;12.704;2023-09-30T03:15:47;15.70;99.90
10572;DHT22;5334;48.928;12.704;2023-09-30T03:18:15;15.70;99.90
10572;DHT22;5334;48.928;12.704;2023-09-30T03:20:43;15.70;99.90
10572;DHT22;5334;48.928;12.704;2023-09-30T03:23:09;15.70;99.90
10572;DHT22;5334;48.928;12.704;2023-09-30T03:25:35;15.60;99.90
10572;DHT22;5334;48.928;12.704;2023-09-30T03:28:01;15.60;99.90
10572;DHT22;5334;48.928;12.704;2023-09-30T03:30:27;15.60;99.90
10572;DHT22;5334;48.928;12.704;2023-09-30T03:32:55;15.60;99.90
10572;DHT22;5334;48.928;12.704;2023-09-30T03:35:20;15.50;99.90
10572;DHT22;5334;48.928;12.704;2023-09-30T03:37:47;15.50;99.90
10572;DHT22;5334;48.928;12.704;2023-09-30T03:40:13;15.50;99.90
10572;DHT22;5334;48.928;12.704;2023-09-30T03:42:53;15.50;99.90
10572;DHT22;5334;48.928;12.704;2023-09-30T03:45:19;15.60;99.90
10572;DHT22;5334;48.928;12.704;2023-09-30T03:47:45;15.50;99.90
10572;DHT22;5334;48.928;12.704;2023-09-30T03:50:13;15.50;99.90
10572;DHT22;5334;48.928;12.704;2023-09-30T03:52:43;15.50;99.90
10572;DHT22;5334;48.928;12.704;2023-09-30T03:55:13;15.50;99.90
10572;DHT22;5334;48.928;12.704;2023-09-30T03:57:40;15.50;99.90
10572;DHT22;5334;48.928;12.704;2023-09-30T04:00:06;15.60;99.90
10572;DHT22;5334;48.928;12.704;2023-09-30T04:02:35;15.60;99.90
10572;DHT22;5334;48.928;12.704;2023-09-30T04:05:01;15.60;99.90
10572;DHT22;5334;48.928;12.704;2023-09-30T04:07:31;15.60;99.90
10572;DHT22;5334;48.928;12.704;2023-09-30T04:09:58;15.50;99.90
10572;DHT22;5334;48.928;12.704;2023-09-30T04:12:26;15.50;99.90
10572;DHT22;5334;48.928;12.704;2023-09-30T04:14:52;15.50;99.90
10572;DHT22;5334;48.928;12.704;2023-09-30T04:17:18;15.60;99.90
10572;DHT22;5334;48.928;12.704;2023-09-30T04:19:44;15.70;99.90
10572;DHT22;5334;48.928;12.704;2023-09-30T04:22:11;15.80;99.90
10572;DHT22;5334;48.928;12.704;2023-09-30T04:24:37;15.90;99.90
10572;DHT22;5334;48.928;12.704;2023-09-30T04:27:03;15.80;99.90
10572;DHT22;5334;48.928;12.704;2023-09-30T04:29:30;15.60;99.90
10572;DHT22;5334;48.928;12.704;2023-09-30T04:31:56;15.60;99.90
10572;DHT22;5334;48.928;12.704;2023-09-30T04:34:22;15.60;99.90
10572;DHT22;5334;48.928;12.704;2023-09-30T04:36:48;15.60;99.90
10572;DHT22;5334;48.928;12.704;2023-09-30T04:39:13;15.60;99.90
10572;DHT22;5334;48.928;12.704;2023-09-30T04:41:40;15.60;99.90
10572;DHT22;5334;48.928;12.704;2023-09-30T04:44:09;15.60;99.90
10572;DHT22;5334;48.928;12.704;2023-09-30T04:46:36;15.50;99.90
10572;DHT22;5334;48.928;12.704;2023-09-30T04:49:09;15.50;99.90
10572;DHT22;5334;48.928;12.704;2023-09-30T04:51:34;15.60;99.90
10572;DHT22;5334;48.928;12.704;2023-09-30T04:54:00;15.60;99.90
10572;DHT22;5334;48.928;12.704;2023-09-30T04:56:27;15.60;99.90
10572;DHT22;5334;48.928;12.704;2023-09-30T04:58:53;15.70;99.90
10572;DHT22;5334;48.928;12.704;2023-09-30T05:01:19;15.60;99.90
10572;DHT22;5334;48.928;12.704;2023-09-30T05:03:45;15.70;99.90
10572;DHT22;5334;48.928;12.704;2023-09-30T05:06:15;15.70;99.90
10572;DHT22;5334;48.928;12.704;2023-09-30T05:08:40;15.80;99.90
10572;DHT22;5334;48.928;12.704;2023-09-30T05:11:07;15.80;99.90
10572;DHT22;5334;48.928;12.704;2023-09-30T05:13:33;15.90;99.90
10572;DHT22;5334;48.928;12.704;2023-09-30T05:15:59;16.00;99.90
10572;DHT22;5334;48.928;12.704;2023-09-30T05:18:25;16.00;99.90
10572;DHT22;5334;48.928;12.704;2023-09-30T05:20:51;16.00;99.90
10572;DHT22;5334;48.928;12.704;2023-09-30T05:23:16;16.00;99.90
10572;DHT22;5334;48.928;12.704;2023-09-30T05:25:43;16.10;99.90
10572;DHT22;5334;48.928;12.704;2023-09-30T05:28:08;16.10;99.90
10572;DHT22;5334;48.928;12.704;2023-09-30T05:30:35;16.10;99.90
10572;DHT22;5334;48.928;12.704;2023-09-30T05:33:01;16.10;99.90
10572;DHT22;5334;48.928;12.704;2023-09-30T05:35:27;16.10;99.90
10572;DHT22;5334;48.928;12.704;2023-09-30T05:37:53;16.00;99.90
10572;DHT22;5334;48.928;12.704;2023-09-30T05:40:20;16.00;99.90
10572;DHT22;5334;48.928;12.704;2023-09-30T05:42:58;16.00;99.90
10572;DHT22;5334;48.928;12.704;2023-09-30T05:45:24;16.00;99.90
10572;DHT22;5334;48.928;12.704;2023-09-30T05:47:52;16.00;99.90
10572;DHT22;5334;48.928;12.704;2023-09-30T05:50:19;16.00;99.90
10572;DHT22;5334;48.928;12.704;2023-09-30T05:52:53;16.10;99.90
10572;DHT22;5334;48.928;12.704;2023-09-30T05:55:20;16.10;99.90
10572;DHT22;5334;48.928;12.704;2023-09-30T05:57:47;16.00;99.90
10572;DHT22;5334;48.928;12.704;2023-09-30T06:00:15;16.00;99.90
10572;DHT22;5334;48.928;12.704;2023-09-30T06:02:47;16.00;99.90
10572;DHT22;5334;48.928;12.704;2023-09-30T06:05:13;16.00;99.90
10572;DHT22;5334;48.928;12.704;2023-09-30T06:07:41;16.00;99.90
10572;DHT22;5334;48.928;12.704;2023-09-30T06:10:09;16.00;99.90
10572;DHT22;5334;48.928;12.704;2023-09-30T06:12:35;16.00;99.90
10572;DHT22;5334;48.928;12.704;2023-09-30T06:15:01;16.00;99.90
10572;DHT22;5334;48.928;12.704;2023-09-30T06:17:28;16.00;99.90
10572;DHT22;5334;48.928;12.704;2023-09-30T06:19:54;16.00;99.90
10572;DHT22;5334;48.928;12.704;2023-09-30T06:22:20;16.00;99.90
10572;DHT22;5334;48.928;12.704;2023-09-30T06:24:47;16.10;99.90
10572;DHT22;5334;48.928;12.704;2023-09-30T06:27:13;16.10;99.90
10572;DHT22;5334;48.928;12.704;2023-09-30T06:29:39;16.20;99.90
10572;DHT22;5334;48.928;12.704;2023-09-30T06:32:06;16.20;99.90
10572;DHT22;5334;48.928;12.704;2023-09-30T06:34:32;16.20;99.90
10572;DHT22;5334;48.928;12.704;2023-09-30T06:37:00;16.20;99.90
10572;DHT22;5334;48.928;12.704;2023-09-30T06:39:25;16.10;99.90
10572;DHT22;5334;48.928;12.704;2023-09-30T06:41:51;16.10;99.90
10572;DHT22;5334;48.928;12.704;2023-09-30T06:44:17;16.20;99.90
10572;DHT22;5334;48.928;12.704;2023-09-30T06:46:43;16.20;99.90
10572;DHT22;5334;48.928;12.704;2023-09-30T06:49:09;16.30;99.90
10572;DHT22;5334;48.928;12.704;2023-09-30T06:51:36;16.30;99.90
10572;DHT22;5334;48.928;12.704;2023-09-30T06:54:04;16.40;99.90
10572;DHT22;5334;48.928;12.704;2023-09-30T06:56:31;16.30;99.90
10572;DHT22;5334;48.928;12.704;2023-09-30T06:58:57;16.30;99.90
10572;DHT22;5334;48.928;12.704;2023-09-30T07:01:23;16.30;99.90
10572;DHT22;5334;48.928;12.704;2023-09-30T07:03:49;16.30;99.90
10572;DHT22;5334;48.928;12.704;2023-09-30T07:06:26;16.40;99.90
10572;DHT22;5334;48.928;12.704;2023-09-30T07:08:54;16.40;99.90
10572;DHT22;5334;48.928;12.704;2023-09-30T07:11:29;16.50;99.90
10572;DHT22;5334;48.928;12.704;2023-09-30T07:14:01;16.50;99.90
10572;DHT22;5334;48.928;12.704;2023-09-30T07:16:26;16.60;99.90
10572;DHT22;5334;48.928;12.704;2023-09-30T07:18:52;16.60;99.90
10572;DHT22;5334;48.928;12.704;2023-09-30T07:21:18;16.60;99.90
10572;DHT22;5334;48.928;12.704;2023-09-30T07:23:43;16.60;99.90
10572;DHT22;5334;48.928;12.704;2023-09-30T07:26:09;16.60;99.90
10572;DHT22;5334;48.928;12.704;2023-09-30T07:28:38;16.60;99.90
10572;DHT22;5334;48.928;12.704;2023-09-30T07:31:03;16.60;99.90
10572;DHT22;5334;48.928;12.704;2023-09-30T07:33:29;16.60;99.90
10572;DHT22;5334;48.928;12.704;2023-09-30T07:35:55;16.80;99.90
10572;DHT22;5334;48.928;12.704;2023-09-30T07:38:21;16.90;99.90
10572;DHT22;5334;48.928;12.704;2023-09-30T07:40:47;17.20;99.90
10572;DHT22;5334;48.928;12.704;2023-09-30T07:43:14;17.30;99.90
10572;DHT22;5334;48.928;12.704;2023-09-30T07:45:40;17.30;99.90
10572;DHT22;5334;48.928;12.704;2023-09-30T07:48:09;17.30;99.90
10572;DHT22;5334;48.928;12.704;2023-09-30T07:50:36;17.30;99.90
10572;DHT22;5334;48.928;12.704;2023-09-30T07:53:02;17.30;99.90
10572;DHT22;5334;48.928;12.704;2023-09-30T07:55:28;17.30;99.90
10572;DHT22;5334;48.928;12.704;2023-09-30T07:57:54;17.30;99.90
10572;DHT22;5334;48.928;12.704;2023-09-30T08:00:19;17.20;99.90
10572;DHT22;5334;48.928;12.704;2023-09-30T08:02:47;17.30;99.90
10572;DHT22;5334;48.928;12.704;2023-09-30T08:05:12;17.30;99.90
10572;DHT22;5334;48.928;12.704;2023-09-30T08:07:39;17.30;99.90
10572;DHT22;5334;48.928;12.704;2023-09-30T08:10:05;17.30;99.90
10572;DHT22;5334;48.928;12.704;2023-09-30T08:12:32;17.30;99.90
10572;DHT22;5334;48.928;12.704;2023-09-30T08:14:58;17.30;99.90
10572;DHT22;5334;48.928;12.704;2023-09-30T08:17:26;17.30;99.90
10572;DHT22;5334;48.928;12.704;2023-09-30T08:19:55;17.40;99.90
10572;DHT22;5334;48.928;12.704;2023-09-30T08:22:24;17.50;99.90
10572;DHT22;5334;48.928;12.704;2023-09-30T08:24:56;17.60;99.90
10572;DHT22;5334;48.928;12.704;2023-09-30T08:27:22;17.60;99.90
10572;DHT22;5334;48.928;12.704;2023-09-30T08:29:52;17.70;99.90
10572;DHT22;5334;48.928;12.704;2023-09-30T08:32:19;17.70;99.90
10572;DHT22;5334;48.928;12.704;2023-09-30T08:34:45;17.70;99.90
10572;DHT22;5334;48.928;12.704;2023-09-30T08:37:11;17.60;99.90
10572;DHT22;5334;48.928;12.704;2023-09-30T08:39:40;17.60;99.90
10572;DHT22;5334;48.928;12.704;2023-09-30T08:42:28;17.70;99.90
10572;DHT22;5334;48.928;12.704;2023-09-30T08:44:58;17.80;99.90
10572;DHT22;5334;48.928;12.704;2023-09-30T08:47:28;18.00;99.90
10572;DHT22;5334;48.928;12.704;2023-09-30T08:49:54;18.20;99.90
10572;DHT22;5334;48.928;12.704;2023-09-30T08:52:26;18.20;99.90
10572;DHT22;5334;48.928;12.704;2023-09-30T08:54:54;18.10;99.90
10572;DHT22;5334;48.928;12.704;2023-09-30T08:57:20;18.00;99.90
10572;DHT22;5334;48.928;12.704;2023-09-30T08:59:46;17.90;99.90
10572;DHT22;5334;48.928;12.704;2023-09-30T09:02:13;17.90;99.90
10572;DHT22;5334;48.928;12.704;2023-09-30T09:04:39;17.90;99.90
10572;DHT22;5334;48.928;12.704;2023-09-30T09:07:05;17.80;99.90
10572;DHT22;5334;48.928;12.704;2023-09-30T09:09:31;17.80;99.90
10572;DHT22;5334;48.928;12.704;2023-09-30T09:11:58;17.80;99.90
10572;DHT22;5334;48.928;12.704;2023-09-30T09:14:40;17.90;99.90
10572;DHT22;5334;48.928;12.704;2023-09-30T09:17:07;17.90;99.90
10572;DHT22;5334;48.928;12.704;2023-09-30T09:19:34;17.80;99.90
10572;DHT22;5334;48.928;12.704;2023-09-30T09:22:01;17.80;99.90
10572;DHT22;5334;48.928;12.704;2023-09-30T09:24:37;17.80;99.90
10572;DHT22;5334;48.928;12.704;2023-09-30T09:27:11;17.70;99.90
10572;DHT22;5334;48.928;12.704;2023-09-30T09:29:40;17.70;99.90
10572;DHT22;5334;48.928;12.704;2023-09-30T09:32:12;17.70;99.90
10572;DHT22;5334;48.928;12.704;2023-09-30T09:34:39;17.80;99.90
10572;DHT22;5334;48.928;12.704;2023-09-30T09:37:19;17.90;99.90
10572;DHT22;5334;48.928;12.704;2023-09-30T09:39:58;18.10;99.90
10572;DHT22;5334;48.928;12.704;2023-09-30T09:42:29;18.10;99.90
10572;DHT22;5334;48.928;12.704;2023-09-30T09:44:57;18.10;99.90
10572;DHT22;5334;48.928;12.704;2023-09-30T09:47:24;18.10;99.90
10572;DHT22;5334;48.928;12.704;2023-09-30T09:49:53;18.10;99.90
10572;DHT22;5334;48.928;12.704;2023-09-30T09:52:21;18.10;99.90
10572;DHT22;5334;48.928;12.704;2023-09-30T09:54:47;18.10;99.90
10572;DHT22;5334;48.928;12.704;2023-09-30T09:57:14;18.10;99.90
10572;DHT22;5334;48.928;12.704;2023-09-30T09:59:46;18.20;99.90
10572;DHT22;5334;48.928;12.704;2023-09-30T10:02:19;18.40;99.90
10572;DHT22;5334;48.928;12.704;2023-09-30T10:04:48;18.40;99.90
10572;DHT22;5334;48.928;12.704;2023-09-30T10:07:26;18.40;99.90
10572;DHT22;5334;48.928;12.704;2023-09-30T10:09:53;18.40;99.90
10572;DHT22;5334;48.928;12.704;2023-09-30T10:12:21;18.30;99.90
10572;DHT22;5334;48.928;12.704;2023-09-30T10:14:47;18.20;99.90
10572;DHT22;5334;48.928;12.704;2023-09-30T10:17:13;18.30;99.90
10572;DHT22;5334;48.928;12.704;2023-09-30T10:20:17;18.30;99.90
10572;DHT22;5334;48.928;12.704;2023-09-30T10:36:52;19.50;99.90
10572;DHT22;5334;48.928;12.704;2023-09-30T10:39:57;19.50;99.90
10572;DHT22;5334;48.928;12.704;2023-09-30T10:42:48;19.50;99.90
10572;DHT22;5334;48.928;12.704;2023-09-30T10:50:58;19.10;99.90
10572;DHT22;5334;48.928;12.704;2023-09-30T10:53:26;18.90;99.90
10572;DHT22;5334;48.928;12.704;2023-09-30T10:55:57;19.00;99.90
10572;DHT22;5334;48.928;12.704;2023-09-30T10:58:43;19.20;99.90
10572;DHT22;5334;48.928;12.704;2023-09-30T11:01:09;19.50;99.90
10572;DHT22;5334;48.928;12.704;2023-09-30T11:03:35;19.50;99.90
10572;DHT22;5334;48.928;12.704;2023-09-30T11:06:02;19.40;99.90
10572;DHT22;5334;48.928;12.704;2023-09-30T11:08:29;19.30;99.90
10572;DHT22;5334;48.928;12.704;2023-09-30T11:10:56;19.20;99.90
10572;DHT22;5334;48.928;12.704;2023-09-30T11:13:22;19.20;99.90
10572;DHT22;5334;48.928;12.704;2023-09-30T11:16:00;19.20;99.90
10572;DHT22;5334;48.928;12.704;2023-09-30T11:18:26;19.40;99.90
10572;DHT22;5334;48.928;12.704;2023-09-30T11:21:05;19.60;99.90
10572;DHT22;5334;48.928;12.704;2023-09-30T11:23:31;19.50;99.90
10572;DHT22;5334;48.928;12.704;2023-09-30T11:25:57;19.50;99.90
10572;DHT22;5334;48.928;12.704;2023-09-30T11:28:23;19.40;99.90
10572;DHT22;5334;48.928;12.704;2023-09-30T11:30:58;19.30;99.90
10572;DHT22;5334;48.928;12.704;2023-09-30T11:33:24;19.30;99.90
10572;DHT22;5334;48.928;12.704;2023-09-30T11:36:01;19.20;99.90
10572;DHT22;5334;48.928;12.704;2023-09-30T11:38:31;19.10;99.90
10572;DHT22;5334;48.928;12.704;2023-09-30T11:41:05;19.10;99.90
10572;DHT22;5334;48.928;12.704;2023-09-30T11:43:33;19.30;99.90
10572;DHT22;5334;48.928;12.704;2023-09-30T11:46:08;19.50;99.90
10572;DHT22;5334;48.928;12.704;2023-09-30T11:48:35;19.60;99.90
10572;DHT22;5334;48.928;12.704;2023-09-30T11:51:01;19.70;99.90
10572;DHT22;5334;48.928;12.704;2023-09-30T11:53:35;19.70;99.90
10572;DHT22;5334;48.928;12.704;2023-09-30T11:56:01;19.60;99.90
10572;DHT22;5334;48.928;12.704;2023-09-30T11:58:35;19.50;99.90
10572;DHT22;5334;48.928;12.704;2023-09-30T12:01:07;19.50;99.90
10572;DHT22;5334;48.928;12.704;2023-09-30T12:03:39;19.50;99.90
10572;DHT22;5334;48.928;12.704;2023-09-30T12:06:08;19.80;99.90
10572;DHT22;5334;48.928;12.704;2023-09-30T12:08:39;19.90;99.90
10572;DHT22;5334;48.928;12.704;2023-09-30T12:11:12;20.10;99.90
10572;DHT22;5334;48.928;12.704;2023-09-30T12:13:41;20.30;99.90
10572;DHT22;5334;48.928;12.704;2023-09-30T12:16:07;20.30;99.90
10572;DHT22;5334;48.928;12.704;2023-09-30T12:18:35;20.40;99.90
10572;DHT22;5334;48.928;12.704;2023-09-30T12:21:01;20.50;99.90
10572;DHT22;5334;48.928;12.704;2023-09-30T12:23:30;20.50;99.90
10572;DHT22;5334;48.928;12.704;2023-09-30T12:25:56;20.30;99.90
10572;DHT22;5334;48.928;12.704;2023-09-30T12:28:28;20.20;99.90
10572;DHT22;5334;48.928;12.704;2023-09-30T12:30:57;20.10;99.90
10572;DHT22;5334;48.928;12.704;2023-09-30T12:33:23;20.00;99.90
10572;DHT22;5334;48.928;12.704;2023-09-30T12:35:53;20.00;99.90
10572;DHT22;5334;48.928;12.704;2023-09-30T12:38:19;20.00;99.90
10572;DHT22;5334;48.928;12.704;2023-09-30T12:40:44;20.10;99.90
10572;DHT22;5334;48.928;12.704;2023-09-30T12:43:10;20.20;99.90
10572;DHT22;5334;48.928;12.704;2023-09-30T12:45:36;20.30;99.90
10572;DHT22;5334;48.928;12.704;2023-09-30T12:48:05;20.40;99.90
10572;DHT22;5334;48.928;12.704;2023-09-30T12:50:31;20.40;99.90
10572;DHT22;5334;48.928;12.704;2023-09-30T12:53:02;20.50;99.90
10572;DHT22;5334;48.928;12.704;2023-09-30T12:55:33;20.60;99.90
10572;DHT22;5334;48.928;12.704;2023-09-30T12:58:07;20.50;99.90
10572;DHT22;5334;48.928;12.704;2023-09-30T13:00:36;20.60;99.90
10572;DHT22;5334;48.928;12.704;2023-09-30T13:03:02;20.60;99.90
10572;DHT22;5334;48.928;12.704;2023-09-30T13:05:28;20.60;99.90
10572;DHT22;5334;48.928;12.704;2023-09-30T13:07:57;20.60;99.90
10572;DHT22;5334;48.928;12.704;2023-09-30T13:10:23;20.60;99.90
10572;DHT22;5334;48.928;12.704;2023-09-30T13:12:49;20.60;99.90
10572;DHT22;5334;48.928;12.704;2023-09-30T13:15:16;20.60;99.90
10572;DHT22;5334;48.928;12.704;2023-09-30T13:17:45;20.70;99.90
10572;DHT22;5334;48.928;12.704;2023-09-30T13:20:11;20.70;99.90
10572;DHT22;5334;48.928;12.704;2023-09-30T13:22:40;20.70;99.90
10572;DHT22;5334;48.928;12.704;2023-09-30T13:25:06;20.60;99.90
10572;DHT22;5334;48.928;12.704;2023-09-30T13:27:33;20.50;99.90
10572;DHT22;5334;48.928;12.704;2023-09-30T13:29:59;20.40;99.90
10572;DHT22;5334;48.928;12.704;2023-09-30T13:32:27;20.30;99.90
10572;DHT22;5334;48.928;12.704;2023-09-30T13:34:53;20.30;99.90
10572;DHT22;5334;48.928;12.704;2023-09-30T13:37:19;20.30;99.90
10572;DHT22;5334;48.928;12.704;2023-09-30T13:39:45;20.30;99.90
10572;DHT22;5334;48.928;12.704;2023-09-30T13:42:11;20.40;99.90
10572;DHT22;5334;48.928;12.704;2023-09-30T13:44:37;21.10;99.90
10572;DHT22;5334;48.928;12.704;2023-09-30T13:47:03;22.00;99.90
10572;DHT22;5334;48.928;12.704;2023-09-30T13:49:29;22.80;99.90
10572;DHT22;5334;48.928;12.704;2023-09-30T13:51:59;22.80;99.90
10572;DHT22;5334;48.928;12.704;2023-09-30T13:54:24;22.30;99.90
10572;DHT22;5334;48.928;12.704;2023-09-30T13:56:50;22.00;99.90
10572;DHT22;5334;48.928;12.704;2023-09-30T13:59:16;21.90;99.90
10572;DHT22;5334;48.928;12.704;2023-09-30T14:01:41;22.50;99.90
10572;DHT22;5334;48.928;12.704;2023-09-30T14:04:08;23.00;99.90
10572;DHT22;5334;48.928;12.704;2023-09-30T14:06:33;23.30;99.90
10572;DHT22;5334;48.928;12.704;2023-09-30T14:08:59;23.50;99.90
10572;DHT22;5334;48.928;12.704;2023-09-30T14:11:26;23.50;99.90
10572;DHT22;5334;48.928;12.704;2023-09-30T14:13:52;23.70;99.90
10572;DHT22;5334;48.928;12.704;2023-09-30T14:16:17;23.70;99.90
10572;DHT22;5334;48.928;12.704;2023-09-30T14:18:43;23.70;99.90
10572;DHT22;5334;48.928;12.704;2023-09-30T14:21:10;23.80;99.90
10572;DHT22;5334;48.928;12.704;2023-09-30T14:23:36;23.80;99.90
10572;DHT22;5334;48.928;12.704;2023-09-30T14:26:02;23.80;99.90
10572;DHT22;5334;48.928;12.704;2023-09-30T14:28:36;23.80;99.90
10572;DHT22;5334;48.928;12.704;2023-09-30T14:31:05;23.70;99.90
10572;DHT22;5334;48.928;12.704;2023-09-30T14:33:31;23.50;99.90
10572;DHT22;5334;48.928;12.704;2023-09-30T14:35:57;23.40;99.90
10572;DHT22;5334;48.928;12.704;2023-09-30T14:38:22;23.50;99.90
10572;DHT22;5334;48.928;12.704;2023-09-30T14:40:49;23.50;99.90
10572;DHT22;5334;48.928;12.704;2023-09-30T14:43:15;23.50;99.90
10572;DHT22;5334;48.928;12.704;2023-09-30T14:45:41;23.50;99.90
10572;DHT22;5334;48.928;12.704;2023-09-30T14:48:10;23.30;99.90
10572;DHT22;5334;48.928;12.704;2023-09-30T14:50:36;23.10;99.90
10572;DHT22;5334;48.928;12.704;2023-09-30T14:53:02;22.70;99.90
10572;DHT22;5334;48.928;12.704;2023-09-30T14:55:30;22.20;99.90
10572;DHT22;5334;48.928;12.704;2023-09-30T14:57:56;22.00;99.90
10572;DHT22;5334;48.928;12.704;2023-09-30T15:00:22;21.90;99.90
10572;DHT22;5334;48.928;12.704;2023-09-30T15:02:50;21.90;99.90
10572;DHT22;5334;48.928;12.704;2023-09-30T15:05:16;21.80;99.90
10572;DHT22;5334;48.928;12.704;2023-09-30T15:07:42;21.40;99.90
10572;DHT22;5334;48.928;12.704;2023-09-30T15:10:08;21.40;99.90
10572;DHT22;5334;48.928;12.704;2023-09-30T15:12:35;21.70;99.90
10572;DHT22;5334;48.928;12.704;2023-09-30T15:15:01;22.10;99.90
10572;DHT22;5334;48.928;12.704;2023-09-30T15:17:27;22.30;99.90
10572;DHT22;5334;48.928;12.704;2023-09-30T15:19:55;22.50;99.90
10572;DHT22;5334;48.928;12.704;2023-09-30T15:22:20;22.50;99.90
10572;DHT22;5334;48.928;12.704;2023-09-30T15:24:46;22.30;99.90
10572;DHT22;5334;48.928;12.704;2023-09-30T15:27:12;21.90;99.90
10572;DHT22;5334;48.928;12.704;2023-09-30T15:29:37;21.40;99.90
10572;DHT22;5334;48.928;12.704;2023-09-30T15:32:03;21.00;99.90
10572;DHT22;5334;48.928;12.704;2023-09-30T15:34:30;20.60;99.90
10572;DHT22;5334;48.928;12.704;2023-09-30T15:36:55;20.50;99.90
10572;DHT22;5334;48.928;12.704;2023-09-30T15:39:22;20.50;99.90
10572;DHT22;5334;48.928;12.704;2023-09-30T15:41:47;20.50;99.90
10572;DHT22;5334;48.928;12.704;2023-09-30T15:44:13;20.40;99.90
10572;DHT22;5334;48.928;12.704;2023-09-30T15:46:42;20.30;99.90
10572;DHT22;5334;48.928;12.704;2023-09-30T15:49:07;20.00;99.90
10572;DHT22;5334;48.928;12.704;2023-09-30T15:51:33;19.70;99.90
10572;DHT22;5334;48.928;12.704;2023-09-30T15:53:59;19.50;99.90
10572;DHT22;5334;48.928;12.704;2023-09-30T15:56:24;19.30;99.90
10572;DHT22;5334;48.928;12.704;2023-09-30T15:58:50;19.00;99.90
10572;DHT22;5334;48.928;12.704;2023-09-30T16:01:16;18.90;99.90
10572;DHT22;5334;48.928;12.704;2023-09-30T16:03:42;18.70;99.90
10572;DHT22;5334;48.928;12.704;2023-09-30T16:06:08;18.60;99.90
10572;DHT22;5334;48.928;12.704;2023-09-30T16:08:34;18.40;99.90
10572;DHT22;5334;48.928;12.704;2023-09-30T16:11:00;18.30;99.90
10572;DHT22;5334;48.928;12.704;2023-09-30T16:13:26;18.10;99.90
10572;DHT22;5334;48.928;12.704;2023-09-30T16:15:53;18.00;99.90
10572;DHT22;5334;48.928;12.704;2023-09-30T16:18:18;17.90;99.90
10572;DHT22;5334;48.928;12.704;2023-09-30T16:20:44;17.80;99.90
10572;DHT22;5334;48.928;12.704;2023-09-30T16:23:10;17.70;99.90
10572;DHT22;5334;48.928;12.704;2023-09-30T16:25:35;17.60;99.90
10572;DHT22;5334;48.928;12.704;2023-09-30T16:28:01;17.50;99.90
10572;DHT22;5334;48.928;12.704;2023-09-30T16:30:27;17.50;99.90
10572;DHT22;5334;48.928;12.704;2023-09-30T16:32:54;17.40;99.90